Terminal Aerodrome Forecast
Issued by NWS Amarillo, TX

Current Version | Previous Version | Text Only | Print | Product List | Glossary Off
Versions: 1 2 3 4 5 6 7 8 9 10 11 12 13 14 15 16

000
FTUS44 KAMA 271100
TAFAMA
TAF
KAMA 271127Z 2712/2812 36011KT P6SM BKN110
     FM271900 35009KT P6SM SCT300
     FM280200 22006KT P6SM SKC=

USA.gov is the U.S. government's official web portal to all federal, state and local government web resources and services.